Time;durP1;ratioP1;P1;durP2;ratioP2;P2;SDS_P1;SDS_P2;PMS_P1;PMS_P2;Temp;Humidity;BMP_temperature;BMP_pressure;BME280_temperature;BME280_humidity;BME280_pressure;Samples;Min_cycle;Max_cycle;Signal;HPM_P1;HPM_P2
2023/12/12 00:01:47;;;;;;;;;;;12.30;86.00;;;;;;4929410;28;20405;-81
2023/12/12 00:04:16;;;;;;;;;;;12.30;86.00;;;;;;4972659;28;19906;-80
2023/12/12 00:07:12;;;;;;;;;;;12.40;86.20;;;;;;4973376;28;19965;-80
2023/12/12 00:09:40;;;;;;;;;;;12.40;86.00;;;;;;4956582;28;19913;-80
2023/12/12 00:12:06;;;;;;;;;;;12.40;86.00;;;;;;4972757;28;20427;-81
2023/12/12 00:14:37;;;;;;;;;;;12.40;86.00;;;;;;4956596;28;19965;-80
2023/12/12 00:17:14;;;;;;;;;;;12.30;85.90;;;;;;4967936;28;19913;-80
2023/12/12 00:19:50;;;;;;;;;;;12.30;86.00;;;;;;4973759;28;19914;-81
2023/12/12 00:28:35;;;;;;;;;;;12.40;86.00;;;;;;4952281;29;19938;-80
2023/12/12 00:34:09;;;;;;;;;;;12.30;86.00;;;;;;4949297;29;20026;-80
2023/12/12 00:39:41;;;;;;;;;;;12.30;85.90;;;;;;4933205;29;20011;-79
2023/12/12 00:45:11;;;;;;;;;;;12.40;86.00;;;;;;4933480;29;19968;-80
2023/12/12 00:47:39;;;;;;;;;;;12.40;86.00;;;;;;4933067;29;19934;-81
2023/12/12 00:50:25;;;;;;;;;;;12.40;86.00;;;;;;4947382;29;19914;-81
2023/12/12 00:56:15;;;;;;;;;;;12.30;85.90;;;;;;4955395;29;19953;-80
2023/12/12 00:59:09;;;;;;;;;;;12.30;85.90;;;;;;4923575;29;19910;-81
2023/12/12 01:01:46;;;;;;;;;;;12.40;85.90;;;;;;4954421;29;19911;-80
2023/12/12 01:04:15;;;;;;;;;;;12.40;86.00;;;;;;4939417;29;19914;-81
2023/12/12 01:07:01;;;;;;;;;;;12.40;86.00;;;;;;4939605;29;19965;-80
2023/12/12 01:12:45;;;;;;;;;;;12.30;86.00;;;;;;4977073;28;19957;-80
2023/12/12 01:15:14;;;;;;;;;;;12.40;86.00;;;;;;4945003;28;19910;-80
2023/12/12 01:20:48;;;;;;;;;;;12.30;86.00;;;;;;4970788;28;19969;-82
2023/12/12 01:23:45;;;;;;;;;;;12.30;86.00;;;;;;4966223;28;19907;-80
2023/12/12 01:26:42;;;;;;;;;;;12.30;86.00;;;;;;4959460;28;19953;-81
2023/12/12 01:29:17;;;;;;;;;;;12.30;86.00;;;;;;4958500;28;20363;-82
2023/12/12 01:32:05;;;;;;;;;;;12.30;86.00;;;;;;4975275;28;20287;-80
2023/12/12 01:34:56;;;;;;;;;;;12.30;86.00;;;;;;4969425;28;19910;-80
2023/12/12 01:37:49;;;;;;;;;;;12.40;86.00;;;;;;4976213;28;19906;-81
2023/12/12 01:40:39;;;;;;;;;;;12.30;86.00;;;;;;4956688;28;19917;-80
2023/12/12 01:46:14;;;;;;;;;;;12.30;86.00;;;;;;4976648;28;20016;-80
2023/12/12 01:48:45;;;;;;;;;;;12.30;85.90;;;;;;4958840;28;19910;-81
2023/12/12 01:51:13;;;;;;;;;;;12.30;86.00;;;;;;4962790;28;19993;-80
2023/12/12 01:53:54;;;;;;;;;;;12.30;85.90;;;;;;4976203;28;20334;-80
2023/12/12 01:56:40;;;;;;;;;;;12.30;86.00;;;;;;4911174;28;20367;-80
2023/12/12 01:59:18;;;;;;;;;;;12.30;86.00;;;;;;4960713;28;20392;-82
2023/12/12 02:01:47;;;;;;;;;;;12.30;86.00;;;;;;4943496;28;19941;-81
2023/12/12 02:04:17;;;;;;;;;;;12.40;86.00;;;;;;4958640;28;19906;-81
2023/12/12 02:10:00;;;;;;;;;;;12.30;86.00;;;;;;4916253;29;20487;-80
2023/12/12 02:15:38;;;;;;;;;;;12.30;86.00;;;;;;4916546;29;19914;-80
2023/12/12 02:18:14;;;;;;;;;;;12.40;86.00;;;;;;4900510;29;19907;-80
2023/12/12 02:20:44;;;;;;;;;;;12.30;86.00;;;;;;4900258;29;20420;-81
2023/12/12 02:23:15;;;;;;;;;;;12.30;86.00;;;;;;4884217;29;20372;-82
2023/12/12 02:26:04;;;;;;;;;;;12.30;86.00;;;;;;4869068;29;19907;-81
2023/12/12 02:29:02;;;;;;;;;;;12.30;86.00;;;;;;4915562;29;19941;-80
2023/12/12 02:34:34;;;;;;;;;;;12.30;86.00;;;;;;4872905;29;19954;-80
2023/12/12 02:37:03;;;;;;;;;;;12.30;86.00;;;;;;4874267;28;19906;-81
2023/12/12 02:39:45;;;;;;;;;;;12.40;86.00;;;;;;4926503;28;20367;-79
2023/12/12 02:42:35;;;;;;;;;;;12.30;86.00;;;;;;4975353;28;20283;-81
2023/12/12 02:45:08;;;;;;;;;;;12.30;86.00;;;;;;4957664;28;19913;-80
2023/12/12 02:47:36;;;;;;;;;;;12.30;86.00;;;;;;4958112;28;19937;-81
2023/12/12 02:50:09;;;;;;;;;;;12.30;86.00;;;;;;4974967;28;19906;-80
2023/12/12 02:52:37;;;;;;;;;;;12.30;86.00;;;;;;4953467;29;20005;-81
2023/12/12 02:55:04;;;;;;;;;;;12.30;86.00;;;;;;4953075;29;19906;-80
2023/12/12 02:58:06;;;;;;;;;;;12.30;86.00;;;;;;4953136;29;19906;-80
2023/12/12 03:00:33;;;;;;;;;;;12.30;86.10;;;;;;4937000;29;19966;-81
2023/12/12 03:03:04;;;;;;;;;;;12.30;86.00;;;;;;4954443;28;19914;-80
2023/12/12 03:05:35;;;;;;;;;;;12.30;86.00;;;;;;4941448;28;19906;-81
2023/12/12 03:08:06;;;;;;;;;;;12.40;86.10;;;;;;4940604;28;19957;-80
2023/12/12 03:13:35;;;;;;;;;;;12.30;86.00;;;;;;4975017;28;19916;-81
2023/12/12 03:16:03;;;;;;;;;;;12.30;86.00;;;;;;4957391;28;20371;-82
2023/12/12 03:21:36;;;;;;;;;;;12.30;86.00;;;;;;4915056;29;20284;-80
2023/12/12 03:24:08;;;;;;;;;;;12.30;86.10;;;;;;4894384;29;20003;-80
2023/12/12 03:26:36;;;;;;;;;;;12.30;86.00;;;;;;4915184;29;19981;-80
2023/12/12 03:29:06;;;;;;;;;;;12.30;86.00;;;;;;4910210;29;19907;-80
2023/12/12 03:31:40;;;;;;;;;;;12.30;86.00;;;;;;4947122;28;20008;-80
2023/12/12 03:34:12;;;;;;;;;;;12.30;86.00;;;;;;4957332;28;19913;-80
2023/12/12 03:36:47;;;;;;;;;;;12.30;86.00;;;;;;4957267;28;19906;-81
2023/12/12 03:39:31;;;;;;;;;;;12.30;86.00;;;;;;4924979;28;19912;-81
2023/12/12 03:42:03;;;;;;;;;;;12.30;86.10;;;;;;4956711;28;20503;-81
2023/12/12 03:44:34;;;;;;;;;;;12.30;86.00;;;;;;4940211;28;19906;-81
2023/12/12 03:47:27;;;;;;;;;;;12.30;86.00;;;;;;4965519;28;19954;-80
2023/12/12 03:49:59;;;;;;;;;;;12.30;86.00;;;;;;4952468;28;20283;-80
2023/12/12 03:52:46;;;;;;;;;;;12.30;86.00;;;;;;4956341;28;20382;-81
2023/12/12 03:55:21;;;;;;;;;;;12.30;86.10;;;;;;4940487;28;20008;-80
2023/12/12 03:58:17;;;;;;;;;;;12.30;86.00;;;;;;4956394;28;19913;-80
2023/12/12 04:01:06;;;;;;;;;;;12.30;86.10;;;;;;4966975;28;19910;-80
2023/12/12 04:03:41;;;;;;;;;;;12.30;86.10;;;;;;4952629;29;20290;-80
2023/12/12 04:09:12;;;;;;;;;;;12.30;86.00;;;;;;4952843;29;19913;-80
2023/12/12 04:12:00;;;;;;;;;;;12.30;86.00;;;;;;4904710;29;20398;-80
2023/12/12 04:14:36;;;;;;;;;;;12.30;86.10;;;;;;4936538;29;19911;-80
2023/12/12 04:17:15;;;;;;;;;;;12.30;86.10;;;;;;4922543;29;19911;-81
2023/12/12 04:19:47;;;;;;;;;;;12.30;86.10;;;;;;4948337;28;19926;-80
2023/12/12 04:25:42;;;;;;;;;;;12.30;86.00;;;;;;4974367;28;19937;-80
2023/12/12 04:28:08;;;;;;;;;;;12.30;86.00;;;;;;4954550;28;19941;-79
2023/12/12 04:30:33;;;;;;;;;;;12.30;86.00;;;;;;4955991;28;19964;-81
2023/12/12 04:32:58;;;;;;;;;;;12.30;86.00;;;;;;4958749;28;20347;-80
2023/12/12 04:35:24;;;;;;;;;;;12.30;86.00;;;;;;4958783;28;19907;-80
2023/12/12 04:37:49;;;;;;;;;;;12.30;86.00;;;;;;4958457;28;19910;-79
2023/12/12 04:40:15;;;;;;;;;;;12.30;86.10;;;;;;4957471;28;19918;-80
2023/12/12 04:42:42;;;;;;;;;;;12.30;86.10;;;;;;4958653;28;20363;-80
2023/12/12 04:45:08;;;;;;;;;;;12.30;86.10;;;;;;4958364;28;20072;-79
2023/12/12 04:47:33;;;;;;;;;;;12.30;86.10;;;;;;4958288;28;20427;-80
2023/12/12 04:49:58;;;;;;;;;;;12.30;86.10;;;;;;4957962;28;19910;-80
2023/12/12 04:52:24;;;;;;;;;;;12.30;86.10;;;;;;4958131;28;20007;-80
2023/12/12 04:54:49;;;;;;;;;;;12.30;86.10;;;;;;4975462;28;20004;-80
2023/12/12 04:57:15;;;;;;;;;;;12.30;86.10;;;;;;4957789;28;19935;-79
2023/12/12 04:59:40;;;;;;;;;;;12.30;86.10;;;;;;4957141;28;20012;-80
2023/12/12 05:02:06;;;;;;;;;;;12.30;86.10;;;;;;4957855;28;19910;-79
2023/12/12 05:04:31;;;;;;;;;;;12.30;86.10;;;;;;4958543;28;19910;-79
2023/12/12 05:06:57;;;;;;;;;;;12.30;86.10;;;;;;4957626;28;19993;-80
2023/12/12 05:09:23;;;;;;;;;;;12.30;86.10;;;;;;4956488;28;19910;-77
2023/12/12 05:11:49;;;;;;;;;;;12.40;86.20;;;;;;4957488;28;19906;-79
2023/12/12 05:14:14;;;;;;;;;;;12.30;86.10;;;;;;4957657;28;19913;-80
2023/12/12 05:16:40;;;;;;;;;;;12.30;86.10;;;;;;4960010;28;19910;-80
2023/12/12 05:19:05;;;;;;;;;;;12.30;86.60;;;;;;4958861;28;19906;-79
2023/12/12 05:21:31;;;;;;;;;;;12.30;86.10;;;;;;4957642;28;19916;-78
2023/12/12 05:23:56;;;;;;;;;;;12.30;86.00;;;;;;4957089;28;19953;-79
2023/12/12 05:26:22;;;;;;;;;;;12.30;86.00;;;;;;4957887;28;19917;-78
2023/12/12 05:28:48;;;;;;;;;;;12.30;86.10;;;;;;4958465;28;19953;-78
2023/12/12 05:31:13;;;;;;;;;;;12.30;86.10;;;;;;4957991;28;19910;-80
2023/12/12 05:33:40;;;;;;;;;;;12.30;86.10;;;;;;4957349;28;19916;-78
2023/12/12 05:36:06;;;;;;;;;;;12.30;86.10;;;;;;4957704;28;20028;-79
2023/12/12 05:38:31;;;;;;;;;;;12.30;86.10;;;;;;4957262;28;20004;-79
2023/12/12 05:40:57;;;;;;;;;;;12.30;86.00;;;;;;4956935;28;19918;-79
2023/12/12 05:43:22;;;;;;;;;;;12.20;86.00;;;;;;4957482;28;19910;-79
2023/12/12 05:45:48;;;;;;;;;;;12.30;86.10;;;;;;4957662;28;19944;-79
2023/12/12 05:48:14;;;;;;;;;;;12.30;86.10;;;;;;4954010;29;19957;-77
2023/12/12 05:50:40;;;;;;;;;;;12.20;86.10;;;;;;4953588;29;20414;-80
2023/12/12 05:53:06;;;;;;;;;;;12.30;86.20;;;;;;4957072;28;19906;-79
2023/12/12 05:55:31;;;;;;;;;;;12.20;86.10;;;;;;4957027;28;20049;-79
2023/12/12 05:57:58;;;;;;;;;;;12.30;86.20;;;;;;4956468;28;20014;-79
2023/12/12 06:00:23;;;;;;;;;;;12.30;86.10;;;;;;4973019;28;19910;-80
2023/12/12 06:02:49;;;;;;;;;;;12.30;86.10;;;;;;4973379;28;19917;-77
2023/12/12 06:05:15;;;;;;;;;;;12.30;86.10;;;;;;4973640;28;19916;-80
2023/12/12 06:07:42;;;;;;;;;;;12.30;86.10;;;;;;4973271;28;19914;-78
2023/12/12 06:10:08;;;;;;;;;;;12.30;86.10;;;;;;4972804;28;19929;-79
2023/12/12 06:12:34;;;;;;;;;;;12.30;86.10;;;;;;4972775;28;20510;-79
2023/12/12 06:15:00;;;;;;;;;;;12.30;86.10;;;;;;4973002;28;19906;-79
2023/12/12 06:17:26;;;;;;;;;;;12.30;86.10;;;;;;4972685;28;19914;-79
2023/12/12 06:19:52;;;;;;;;;;;12.30;86.10;;;;;;4974142;28;20366;-80
2023/12/12 06:22:17;;;;;;;;;;;12.20;86.00;;;;;;4976299;28;20017;-79
2023/12/12 06:24:45;;;;;;;;;;;12.30;86.10;;;;;;4973072;28;19912;-81
2023/12/12 06:27:12;;;;;;;;;;;12.30;86.10;;;;;;4956457;28;20234;-80
2023/12/12 06:29:38;;;;;;;;;;;12.20;86.00;;;;;;4973480;28;19914;-79
2023/12/12 06:32:03;;;;;;;;;;;12.30;86.10;;;;;;4956350;28;19961;-80
2023/12/12 06:34:29;;;;;;;;;;;12.30;86.10;;;;;;4974028;28;20323;-79
2023/12/12 06:36:54;;;;;;;;;;;12.30;86.10;;;;;;4972471;28;19910;-80
2023/12/12 06:39:20;;;;;;;;;;;12.30;86.10;;;;;;4972570;28;20278;-79
2023/12/12 06:41:45;;;;;;;;;;;12.30;86.10;;;;;;4972091;28;19906;-79
2023/12/12 06:44:11;;;;;;;;;;;12.30;86.10;;;;;;4972920;28;20330;-80
2023/12/12 06:46:36;;;;;;;;;;;12.30;86.10;;;;;;4972592;28;19910;-79
2023/12/12 06:49:03;;;;;;;;;;;12.30;86.10;;;;;;4972269;28;19953;-78
2023/12/12 06:51:29;;;;;;;;;;;12.30;86.10;;;;;;4972072;28;19960;-78
2023/12/12 06:53:57;;;;;;;;;;;12.30;86.10;;;;;;4974566;28;19925;-79
2023/12/12 06:56:23;;;;;;;;;;;12.30;86.10;;;;;;4972177;28;19906;-80
2023/12/12 06:58:48;;;;;;;;;;;12.30;86.10;;;;;;4972336;28;20290;-80
2023/12/12 07:01:14;;;;;;;;;;;12.30;86.10;;;;;;4971825;28;19914;-79
2023/12/12 07:03:39;;;;;;;;;;;12.30;86.10;;;;;;4972198;28;19906;-80
2023/12/12 07:06:06;;;;;;;;;;;12.20;86.10;;;;;;4973812;28;19990;-79
2023/12/12 07:08:32;;;;;;;;;;;12.30;86.10;;;;;;4971823;28;19925;-79
2023/12/12 07:10:58;;;;;;;;;;;12.30;86.20;;;;;;4972292;28;20331;-80
2023/12/12 07:13:23;;;;;;;;;;;12.30;86.10;;;;;;4972061;28;19906;-79
2023/12/12 07:15:49;;;;;;;;;;;12.30;86.10;;;;;;4971834;28;19917;-79
2023/12/12 07:18:14;;;;;;;;;;;12.20;86.00;;;;;;4972127;28;19906;-80
2023/12/12 07:20:41;;;;;;;;;;;12.30;86.10;;;;;;4972878;28;20318;-78
2023/12/12 07:23:07;;;;;;;;;;;12.30;86.20;;;;;;4972146;28;19917;-78
2023/12/12 07:25:32;;;;;;;;;;;12.30;86.10;;;;;;4971676;28;20212;-79
2023/12/12 07:27:58;;;;;;;;;;;12.30;86.10;;;;;;4955827;28;19930;-79
2023/12/12 07:30:24;;;;;;;;;;;12.30;86.10;;;;;;4956251;28;19910;-81
2023/12/12 07:32:49;;;;;;;;;;;12.20;86.10;;;;;;4955802;28;19917;-79
2023/12/12 07:35:16;;;;;;;;;;;12.30;86.10;;;;;;4956311;28;19921;-80
2023/12/12 07:37:41;;;;;;;;;;;12.30;86.10;;;;;;4956669;28;19957;-81
2023/12/12 07:40:08;;;;;;;;;;;12.30;86.10;;;;;;4955716;28;19914;-79
2023/12/12 07:42:49;;;;;;;;;;;12.30;86.10;;;;;;5260250;23;19922;-80
2023/12/12 07:45:14;;;;;;;;;;;12.20;86.10;;;;;;4955325;28;19913;-79
2023/12/12 07:47:40;;;;;;;;;;;12.20;86.00;;;;;;4956657;28;19910;-78
2023/12/12 07:50:19;;;;;;;;;;;12.40;86.20;;;;;;4955324;28;20009;-81
2023/12/12 07:52:52;;;;;;;;;;;12.30;86.10;;;;;;4955448;28;20089;-80
2023/12/12 07:55:19;;;;;;;;;;;12.30;86.10;;;;;;4956056;28;19946;-81
2023/12/12 07:58:03;;;;;;;;;;;12.40;86.30;;;;;;4951426;29;19914;-79
2023/12/12 08:00:31;;;;;;;;;;;12.30;86.10;;;;;;4952188;29;20005;-80
2023/12/12 08:03:05;;;;;;;;;;;12.20;86.10;;;;;;4953077;28;19910;-80
2023/12/12 08:05:36;;;;;;;;;;;12.30;86.10;;;;;;4958883;29;19957;-82
2023/12/12 08:08:04;;;;;;;;;;;12.30;86.10;;;;;;4958346;28;19906;-80
2023/12/12 08:10:30;;;;;;;;;;;12.30;86.20;;;;;;4958573;28;19916;-80
2023/12/12 08:12:57;;;;;;;;;;;12.30;86.20;;;;;;4958329;28;19969;-79
2023/12/12 08:15:23;;;;;;;;;;;12.30;86.10;;;;;;4958757;28;19929;-80
2023/12/12 08:17:49;;;;;;;;;;;12.20;86.10;;;;;;4959067;28;20368;-80
2023/12/12 08:20:14;;;;;;;;;;;12.30;86.20;;;;;;4958048;28;19938;-79
2023/12/12 08:22:40;;;;;;;;;;;12.30;86.10;;;;;;4958601;28;20431;-79
2023/12/12 08:25:07;;;;;;;;;;;12.30;86.10;;;;;;4958694;29;19911;-80
2023/12/12 08:27:33;;;;;;;;;;;12.20;86.10;;;;;;4959605;29;20435;-79
2023/12/12 08:30:01;;;;;;;;;;;12.30;86.10;;;;;;4958616;28;20017;-80
2023/12/12 08:32:26;;;;;;;;;;;12.30;86.00;;;;;;4958614;28;19915;-80
2023/12/12 08:34:52;;;;;;;;;;;12.30;86.00;;;;;;4959045;29;19906;-80
2023/12/12 08:37:17;;;;;;;;;;;12.20;85.90;;;;;;4958716;29;19910;-79
2023/12/12 08:39:43;;;;;;;;;;;12.30;86.00;;;;;;4958353;29;20041;-79
2023/12/12 08:42:10;;;;;;;;;;;12.40;86.00;;;;;;4958341;28;20014;-80
2023/12/12 08:44:36;;;;;;;;;;;12.30;85.90;;;;;;4958511;28;19918;-80
2023/12/12 08:47:01;;;;;;;;;;;12.30;85.90;;;;;;4958618;29;19917;-79
2023/12/12 08:49:27;;;;;;;;;;;12.30;86.00;;;;;;4958838;28;19914;-80
2023/12/12 08:51:53;;;;;;;;;;;12.30;85.90;;;;;;4958019;28;20000;-79
2023/12/12 08:54:19;;;;;;;;;;;12.30;86.00;;;;;;4958913;29;19916;-80
2023/12/12 08:56:51;;;;;;;;;;;12.30;85.90;;;;;;4958427;29;20739;-80
2023/12/12 08:59:32;;;;;;;;;;;12.30;85.90;;;;;;4957431;28;20072;-77
2023/12/12 09:02:35;;;;;;;;;;;12.30;86.00;;;;;;4959113;28;20313;-81
2023/12/12 09:05:14;;;;;;;;;;;12.30;85.90;;;;;;4958337;29;19906;-79
2023/12/12 09:07:42;;;;;;;;;;;12.40;85.90;;;;;;4958215;29;19961;-79
2023/12/12 09:13:22;;;;;;;;;;;12.30;85.90;;;;;;4956119;28;19917;-79
2023/12/12 09:15:50;;;;;;;;;;;12.40;85.90;;;;;;4938565;29;19906;-80
2023/12/12 09:18:16;;;;;;;;;;;12.30;85.80;;;;;;4938054;29;20360;-79
2023/12/12 09:20:41;;;;;;;;;;;12.30;85.90;;;;;;4955183;29;19921;-79
2023/12/12 09:23:07;;;;;;;;;;;12.50;85.90;;;;;;4954408;28;19916;-78
2023/12/12 09:28:43;;;;;;;;;;;12.40;85.30;;;;;;4915184;29;19914;-79
2023/12/12 09:31:23;;;;;;;;;;;12.50;85.00;;;;;;4957485;28;20270;-79
2023/12/12 09:33:49;;;;;;;;;;;12.60;85.00;;;;;;4957643;29;20389;-79
2023/12/12 09:36:14;;;;;;;;;;;12.90;84.70;;;;;;4955532;29;19922;-79
2023/12/12 09:48:13;;;;;;;;;;;12.80;83.80;;;;;;4915087;29;19968;-79
2023/12/12 09:51:01;;;;;;;;;;;12.90;83.90;;;;;;4955716;29;19906;-78
2023/12/12 09:54:11;;;;;;;;;;;;;;;;;;;;;
2023/12/12 09:56:52;;;;;;;;;;;12.90;83.60;;;;;;4936123;29;19914;-79
2023/12/12 09:59:20;;;;;;;;;;;12.90;83.70;;;;;;4953543;29;19910;-79
2023/12/12 10:01:59;;;;;;;;;;;12.80;83.60;;;;;;4954771;28;19993;-77
2023/12/12 10:04:28;;;;;;;;;;;12.90;83.90;;;;;;4954227;29;19914;-77
2023/12/12 10:07:17;;;;;;;;;;;12.80;83.90;;;;;;4953757;29;19907;-79
2023/12/12 10:10:05;;;;;;;;;;;12.80;84.10;;;;;;4954038;29;20032;-79
2023/12/12 10:12:31;;;;;;;;;;;12.70;84.00;;;;;;4953386;28;19906;-78
2023/12/12 10:14:56;;;;;;;;;;;12.70;84.10;;;;;;4952061;29;19922;-79
2023/12/12 10:17:24;;;;;;;;;;;12.70;84.30;;;;;;4955220;29;19906;-79
2023/12/12 10:20:00;;;;;;;;;;;12.70;84.50;;;;;;4962967;28;19953;-78
2023/12/12 10:22:29;;;;;;;;;;;12.60;84.40;;;;;;4939223;29;19914;-78
2023/12/12 10:24:54;;;;;;;;;;;12.60;84.60;;;;;;4938886;29;19950;-79
2023/12/12 10:27:20;;;;;;;;;;;12.60;84.60;;;;;;4955971;28;19972;-79
2023/12/12 10:29:45;;;;;;;;;;;12.60;84.80;;;;;;4938840;29;19906;-78
2023/12/12 10:32:12;;;;;;;;;;;12.60;84.80;;;;;;4938886;29;19997;-78
2023/12/12 10:34:37;;;;;;;;;;;12.60;84.90;;;;;;4939081;29;19911;-78
2023/12/12 10:37:02;;;;;;;;;;;12.60;85.00;;;;;;4938761;29;20360;-78
2023/12/12 10:39:29;;;;;;;;;;;12.60;84.90;;;;;;4938484;29;19983;-78
2023/12/12 10:41:55;;;;;;;;;;;12.60;85.00;;;;;;4955823;29;19914;-80
2023/12/12 10:44:21;;;;;;;;;;;12.60;85.00;;;;;;4955986;29;19928;-78
2023/12/12 10:46:49;;;;;;;;;;;12.50;85.00;;;;;;4938945;29;19977;-78
2023/12/12 10:49:14;;;;;;;;;;;12.50;85.10;;;;;;4938495;29;19906;-78
2023/12/12 10:51:42;;;;;;;;;;;12.60;85.10;;;;;;4938750;29;19914;-78
2023/12/12 10:54:07;;;;;;;;;;;12.50;85.20;;;;;;4938510;29;19917;-78
2023/12/12 10:56:35;;;;;;;;;;;12.50;85.20;;;;;;4938521;29;19906;-80
2023/12/12 10:59:02;;;;;;;;;;;12.50;85.20;;;;;;4938382;29;20013;-78
2023/12/12 11:01:28;;;;;;;;;;;12.50;85.20;;;;;;4938388;29;19910;-78
2023/12/12 11:03:57;;;;;;;;;;;12.50;85.30;;;;;;4938399;29;19946;-78
2023/12/12 11:06:23;;;;;;;;;;;12.50;85.30;;;;;;4938302;29;19906;-78
2023/12/12 11:08:48;;;;;;;;;;;12.50;85.30;;;;;;4955411;29;19907;-78
2023/12/12 11:11:14;;;;;;;;;;;12.50;85.30;;;;;;4938301;29;20434;-78
2023/12/12 11:13:42;;;;;;;;;;;12.50;85.30;;;;;;4955594;29;19954;-79
2023/12/12 11:16:08;;;;;;;;;;;12.50;85.20;;;;;;4955393;29;19910;-78
2023/12/12 11:18:37;;;;;;;;;;;12.50;85.20;;;;;;4955320;29;20367;-78
2023/12/12 11:21:03;;;;;;;;;;;12.50;85.20;;;;;;4938106;29;20013;-79
2023/12/12 11:23:43;;;;;;;;;;;12.50;85.20;;;;;;4938150;29;20430;-78
2023/12/12 11:26:10;;;;;;;;;;;12.50;85.10;;;;;;4938115;29;20355;-80
2023/12/12 11:28:36;;;;;;;;;;;12.50;85.10;;;;;;4954959;29;19910;-79
2023/12/12 11:31:02;;;;;;;;;;;12.60;85.10;;;;;;4937759;29;19914;-78
2023/12/12 11:33:30;;;;;;;;;;;12.60;85.20;;;;;;4955045;29;20275;-78
2023/12/12 11:35:56;;;;;;;;;;;12.50;85.10;;;;;;4937893;29;19906;-78
2023/12/12 11:38:27;;;;;;;;;;;12.50;85.10;;;;;;4937172;29;20001;-78
2023/12/12 11:41:28;;;;;;;;;;;12.50;85.10;;;;;;4954938;29;20264;-79
2023/12/12 11:43:54;;;;;;;;;;;12.50;85.10;;;;;;4914415;29;19907;-78
2023/12/12 11:46:20;;;;;;;;;;;12.50;85.10;;;;;;4929625;29;20041;-79
2023/12/12 11:48:45;;;;;;;;;;;12.50;85.20;;;;;;4937513;29;19936;-78
2023/12/12 11:51:29;;;;;;;;;;;12.50;85.20;;;;;;4937557;29;19914;-77
2023/12/12 11:53:55;;;;;;;;;;;12.50;85.20;;;;;;4937651;29;19906;-79
2023/12/12 11:56:20;;;;;;;;;;;12.50;85.20;;;;;;4937615;29;19913;-78
2023/12/12 11:58:50;;;;;;;;;;;12.50;85.20;;;;;;4937356;29;19922;-78
2023/12/12 12:01:26;;;;;;;;;;;12.50;85.10;;;;;;4937277;29;20383;-78
2023/12/12 12:03:52;;;;;;;;;;;12.50;85.00;;;;;;4937413;29;19913;-78
2023/12/12 12:06:17;;;;;;;;;;;12.60;85.10;;;;;;4937333;29;19973;-77
2023/12/12 12:08:43;;;;;;;;;;;12.60;85.00;;;;;;4937167;29;19907;-79
2023/12/12 12:11:08;;;;;;;;;;;12.60;85.00;;;;;;4937188;29;19961;-77
2023/12/12 12:13:41;;;;;;;;;;;12.60;84.90;;;;;;4954475;29;19914;-78
2023/12/12 12:16:09;;;;;;;;;;;12.60;84.90;;;;;;4954523;29;19910;-78
2023/12/12 12:18:35;;;;;;;;;;;12.60;85.00;;;;;;4936916;29;19911;-78
2023/12/12 12:21:04;;;;;;;;;;;12.60;85.00;;;;;;4954487;29;20005;-78
2023/12/12 12:23:32;;;;;;;;;;;12.60;85.00;;;;;;4937324;29;19906;-78
2023/12/12 12:26:00;;;;;;;;;;;12.60;85.00;;;;;;4954477;29;19957;-78
2023/12/12 12:28:33;;;;;;;;;;;12.60;84.70;;;;;;4937083;29;19917;-78
2023/12/12 12:30:58;;;;;;;;;;;12.60;84.80;;;;;;4937275;29;19942;-78
2023/12/12 12:33:33;;;;;;;;;;;12.60;84.40;;;;;;4937237;29;19944;-78
2023/12/12 12:35:59;;;;;;;;;;;12.60;84.20;;;;;;4937160;29;19906;-78
2023/12/12 12:38:25;;;;;;;;;;;12.60;84.20;;;;;;4954416;29;19906;-78
2023/12/12 12:40:51;;;;;;;;;;;12.70;84.20;;;;;;4937149;29;19920;-79
2023/12/12 12:43:19;;;;;;;;;;;12.70;84.00;;;;;;4937011;29;20000;-78
2023/12/12 12:45:48;;;;;;;;;;;12.70;83.70;;;;;;4937153;29;20363;-79
2023/12/12 12:48:14;;;;;;;;;;;12.80;83.50;;;;;;4954044;29;19921;-77
2023/12/12 12:50:43;;;;;;;;;;;12.80;83.40;;;;;;4937900;29;19953;-79
2023/12/12 12:53:09;;;;;;;;;;;12.80;83.40;;;;;;4940620;29;19907;-78
2023/12/12 12:55:35;;;;;;;;;;;12.80;83.40;;;;;;4940879;29;19999;-78
2023/12/12 12:58:00;;;;;;;;;;;12.80;83.30;;;;;;4940792;29;20451;-80
2023/12/12 13:00:26;;;;;;;;;;;12.80;83.30;;;;;;4941013;29;19914;-78
2023/12/12 13:02:52;;;;;;;;;;;12.80;83.20;;;;;;4940653;29;19906;-80
2023/12/12 13:05:17;;;;;;;;;;;12.90;83.30;;;;;;4940726;29;19965;-80
2023/12/12 13:07:43;;;;;;;;;;;12.80;83.10;;;;;;4940587;29;19907;-80
2023/12/12 13:10:10;;;;;;;;;;;12.80;83.10;;;;;;4940354;29;19910;-79
2023/12/12 13:12:39;;;;;;;;;;;12.80;83.20;;;;;;4940484;29;20302;-80
2023/12/12 13:15:08;;;;;;;;;;;12.80;83.00;;;;;;4940567;29;20322;-80
2023/12/12 13:17:33;;;;;;;;;;;12.80;83.20;;;;;;4940499;29;20331;-80
2023/12/12 13:20:00;;;;;;;;;;;12.80;83.10;;;;;;4940118;29;19915;-80
2023/12/12 13:22:26;;;;;;;;;;;12.90;83.30;;;;;;4957470;29;19907;-79
2023/12/12 13:24:53;;;;;;;;;;;12.80;83.10;;;;;;4940159;29;19906;-80
2023/12/12 13:27:19;;;;;;;;;;;12.80;83.00;;;;;;4940494;29;19906;-81
2023/12/12 13:29:44;;;;;;;;;;;12.80;82.90;;;;;;4939952;29;19906;-78
2023/12/12 13:32:10;;;;;;;;;;;12.80;83.20;;;;;;4939860;29;19941;-79
2023/12/12 13:34:36;;;;;;;;;;;12.90;83.10;;;;;;4940219;29;19913;-79
2023/12/12 13:37:01;;;;;;;;;;;12.90;83.20;;;;;;4940221;29;19913;-80
2023/12/12 13:39:27;;;;;;;;;;;12.90;83.10;;;;;;4939714;29;19910;-80
2023/12/12 13:41:52;;;;;;;;;;;12.80;83.00;;;;;;4939718;29;19906;-80
2023/12/12 13:44:18;;;;;;;;;;;12.80;82.90;;;;;;4939990;29;19913;-80
2023/12/12 13:46:44;;;;;;;;;;;12.90;83.20;;;;;;4939756;29;20409;-80
2023/12/12 13:49:09;;;;;;;;;;;12.90;83.20;;;;;;4939796;29;19913;-80
2023/12/12 13:51:35;;;;;;;;;;;12.90;83.30;;;;;;4939831;29;20285;-81
2023/12/12 13:54:00;;;;;;;;;;;12.80;83.30;;;;;;4939864;29;19911;-81
2023/12/12 13:56:26;;;;;;;;;;;12.90;83.30;;;;;;4956891;29;20073;-79
2023/12/12 13:58:51;;;;;;;;;;;12.80;83.50;;;;;;4939635;29;19906;-79
2023/12/12 14:01:17;;;;;;;;;;;12.80;83.60;;;;;;4939158;29;19937;-80
2023/12/12 14:03:42;;;;;;;;;;;12.80;83.70;;;;;;4939555;29;19929;-80
2023/12/12 14:06:08;;;;;;;;;;;12.80;83.80;;;;;;4939576;29;19906;-80
2023/12/12 14:08:33;;;;;;;;;;;12.80;83.90;;;;;;4956637;29;19915;-81
2023/12/12 14:10:59;;;;;;;;;;;12.70;83.90;;;;;;4939371;29;19907;-80
2023/12/12 14:13:24;;;;;;;;;;;12.70;84.10;;;;;;4939247;29;19906;-80
2023/12/12 14:15:50;;;;;;;;;;;12.70;84.10;;;;;;4939247;29;19948;-81
2023/12/12 14:18:15;;;;;;;;;;;12.70;84.20;;;;;;4939252;29;19906;-79
2023/12/12 14:20:41;;;;;;;;;;;12.70;84.20;;;;;;4939291;29;20339;-80
2023/12/12 14:23:08;;;;;;;;;;;12.70;84.20;;;;;;4938932;29;20013;-81
2023/12/12 14:25:35;;;;;;;;;;;12.70;84.40;;;;;;4939135;29;20415;-82
2023/12/12 14:28:00;;;;;;;;;;;12.70;84.40;;;;;;4939216;29;19913;-79
2023/12/12 14:30:26;;;;;;;;;;;12.70;84.50;;;;;;4938886;29;20362;-81
2023/12/12 14:32:54;;;;;;;;;;;12.70;84.30;;;;;;4939171;29;19907;-80
2023/12/12 14:35:19;;;;;;;;;;;12.70;84.50;;;;;;4938935;29;19915;-82
2023/12/12 14:37:45;;;;;;;;;;;12.70;84.50;;;;;;4938906;29;19906;-82
2023/12/12 14:40:10;;;;;;;;;;;12.70;84.60;;;;;;4938716;29;20383;-81
2023/12/12 14:42:36;;;;;;;;;;;12.70;84.70;;;;;;4938744;29;19997;-81
2023/12/12 14:45:04;;;;;;;;;;;12.70;84.80;;;;;;4938840;29;20062;-80
2023/12/12 14:47:29;;;;;;;;;;;12.60;84.80;;;;;;4938690;29;20638;-80
2023/12/12 14:49:55;;;;;;;;;;;12.60;84.80;;;;;;4938994;29;19953;-81
2023/12/12 14:52:20;;;;;;;;;;;12.60;84.80;;;;;;4938855;29;19906;-82
2023/12/12 14:54:45;;;;;;;;;;;12.60;84.90;;;;;;4939362;29;19914;-82
2023/12/12 14:57:11;;;;;;;;;;;12.60;84.90;;;;;;4939295;29;19906;-81
2023/12/12 14:59:37;;;;;;;;;;;12.60;84.90;;;;;;4956508;29;19914;-82
2023/12/12 15:02:03;;;;;;;;;;;12.60;85.00;;;;;;4939244;29;19906;-81
2023/12/12 15:04:28;;;;;;;;;;;12.60;85.00;;;;;;4939285;29;20397;-81
2023/12/12 15:06:54;;;;;;;;;;;12.60;84.90;;;;;;4939529;29;19942;-82
2023/12/12 15:09:19;;;;;;;;;;;12.60;85.00;;;;;;4939465;29;19907;-80
2023/12/12 15:11:44;;;;;;;;;;;12.70;85.10;;;;;;4938944;29;19972;-81
2023/12/12 15:14:10;;;;;;;;;;;12.60;85.10;;;;;;4938983;29;19907;-81
2023/12/12 15:16:36;;;;;;;;;;;12.60;85.00;;;;;;4940276;29;19906;-83
2023/12/12 15:19:02;;;;;;;;;;;12.60;85.10;;;;;;4958503;29;20005;-82
2023/12/12 15:21:28;;;;;;;;;;;12.60;85.10;;;;;;4934921;29;19918;-79
2023/12/12 15:23:53;;;;;;;;;;;12.60;85.20;;;;;;4920314;29;19911;-83
2023/12/12 15:33:01;;;;;;;;;;;12.60;85.30;;;;;;4940653;29;19934;-82
2023/12/12 15:38:34;;;;;;;;;;;12.60;85.30;;;;;;4943590;29;19961;-81
2023/12/12 15:43:50;;;;;;;;;;;12.60;85.60;;;;;;5345267;23;20314;-81
2023/12/12 15:46:18;;;;;;;;;;;12.60;85.40;;;;;;4957733;28;19913;-80
2023/12/12 15:48:44;;;;;;;;;;;12.60;85.40;;;;;;4975167;28;19910;-80
2023/12/12 15:51:09;;;;;;;;;;;12.50;85.30;;;;;;4957091;28;19923;-81